Time;durP1;ratioP1;P1;durP2;ratioP2;P2;SDS_P1;SDS_P2;PMS_P1;PMS_P2;Temp;Humidity;BMP_temperature;BMP_pressure;BME280_temperature;BME280_humidity;BME280_pressure;Samples;Min_cycle;Max_cycle;Signal;HPM_P1;HPM_P2
2021/05/07 00:02:00;;;;;;;7.73;5.37;;;10.10;99.90;;;;;;5083515;28;20287;-69
2021/05/07 00:04:27;;;;;;;9.43;6.07;;;10.10;99.90;;;;;;5091858;28;20252;-70
2021/05/07 00:06:53;;;;;;;6.47;5.47;;;10.10;99.90;;;;;;5084284;28;20225;-69
2021/05/07 00:09:20;;;;;;;6.93;5.30;;;10.10;99.90;;;;;;5084869;28;20274;-68
2021/05/07 00:11:47;;;;;;;7.37;5.40;;;10.10;99.90;;;;;;5081108;28;20258;-69
2021/05/07 00:14:14;;;;;;;6.77;5.13;;;10.10;99.90;;;;;;5086269;28;20308;-69
2021/05/07 00:16:40;;;;;;;7.17;5.37;;;10.10;99.90;;;;;;5091013;28;20205;-69
2021/05/07 00:19:07;;;;;;;7.73;5.60;;;10.10;99.90;;;;;;5083750;28;20201;-69
2021/05/07 00:21:34;;;;;;;11.63;5.43;;;10.10;99.90;;;;;;5082528;28;20212;-70
2021/05/07 00:24:01;;;;;;;7.37;5.73;;;10.10;99.90;;;;;;5089759;28;20257;-68
2021/05/07 00:26:28;;;;;;;7.13;4.83;;;10.20;99.90;;;;;;5077030;28;20291;-70
2021/05/07 00:28:55;;;;;;;7.97;5.33;;;10.20;99.90;;;;;;5079871;28;20209;-70
2021/05/07 00:31:21;;;;;;;6.70;5.80;;;10.10;99.90;;;;;;5090420;28;20569;-69
2021/05/07 00:33:48;;;;;;;7.20;5.53;;;10.00;99.90;;;;;;5081953;28;20236;-69
2021/05/07 00:36:15;;;;;;;9.27;5.60;;;9.90;99.90;;;;;;5088206;28;20558;-69
2021/05/07 00:38:41;;;;;;;7.60;5.10;;;9.90;99.90;;;;;;5085187;28;20216;-70
2021/05/07 00:41:07;;;;;;;7.30;5.03;;;9.90;99.90;;;;;;5084929;28;20281;-69
2021/05/07 00:43:37;;;;;;;8.90;6.03;;;9.80;99.90;;;;;;5082110;28;20205;-68
2021/05/07 00:46:03;;;;;;;11.13;6.40;;;9.70;99.90;;;;;;5085160;28;20287;-69
2021/05/07 00:48:30;;;;;;;9.93;6.40;;;9.70;99.90;;;;;;5087769;28;20296;-69
2021/05/07 00:50:56;;;;;;;10.73;7.07;;;9.70;99.90;;;;;;5084395;28;20207;-69
2021/05/07 00:53:23;;;;;;;11.57;6.77;;;9.60;99.90;;;;;;5083615;28;20220;-69
2021/05/07 00:55:49;;;;;;;8.90;7.00;;;9.60;99.90;;;;;;5075124;28;20702;-69
2021/05/07 00:58:16;;;;;;;9.03;7.07;;;9.60;99.90;;;;;;5084532;28;20287;-69
2021/05/07 01:00:43;;;;;;;9.30;7.13;;;9.50;99.90;;;;;;5084402;28;21338;-68
2021/05/07 01:03:10;;;;;;;10.20;7.33;;;9.50;99.90;;;;;;5075546;28;20236;-69
2021/05/07 01:05:37;;;;;;;9.33;7.47;;;9.50;99.90;;;;;;5080018;28;20228;-69
2021/05/07 01:08:03;;;;;;;10.97;7.77;;;9.40;99.90;;;;;;5089565;28;20295;-69
2021/05/07 01:10:30;;;;;;;9.57;7.30;;;9.50;99.90;;;;;;5088534;28;20649;-68
2021/05/07 01:12:56;;;;;;;11.80;7.03;;;9.60;99.90;;;;;;5081040;28;20205;-69
2021/05/07 01:15:25;;;;;;;11.97;7.87;;;9.50;99.90;;;;;;5084928;28;20648;-69
2021/05/07 01:17:54;;;;;;;10.50;7.63;;;9.50;99.90;;;;;;5083987;28;20281;-69
2021/05/07 01:20:24;;;;;;;12.63;7.23;;;9.50;99.90;;;;;;5080265;28;20273;-68
2021/05/07 01:22:52;;;;;;;12.73;8.27;;;9.60;99.90;;;;;;5081082;28;20266;-68
2021/05/07 01:25:20;;;;;;;12.07;7.77;;;9.60;99.90;;;;;;5080257;28;20707;-69
2021/05/07 01:27:48;;;;;;;14.97;8.07;;;9.70;99.90;;;;;;5087250;28;20201;-69
2021/05/07 01:30:17;;;;;;;12.50;8.40;;;9.70;99.90;;;;;;5074291;28;20651;-69
2021/05/07 01:32:44;;;;;;;11.80;9.40;;;9.70;99.90;;;;;;5087760;28;20228;-68
2021/05/07 01:35:14;;;;;;;12.03;9.37;;;9.70;99.90;;;;;;5085477;28;20253;-70
2021/05/07 01:37:42;;;;;;;15.03;10.30;;;9.70;99.90;;;;;;5081791;28;20295;-69
2021/05/07 01:40:14;;;;;;;15.70;10.37;;;9.60;99.90;;;;;;5080539;28;20205;-69
2021/05/07 01:42:41;;;;;;;11.67;9.83;;;9.60;99.90;;;;;;5090359;28;20208;-68
2021/05/07 01:45:08;;;;;;;15.07;10.23;;;9.70;99.90;;;;;;5078939;28;20213;-68
2021/05/07 01:47:35;;;;;;;12.77;9.23;;;9.60;99.90;;;;;;5082635;28;20266;-70
2021/05/07 01:50:01;;;;;;;12.03;9.30;;;9.60;99.90;;;;;;5085108;28;20235;-67
2021/05/07 01:52:28;;;;;;;14.57;9.27;;;9.60;99.90;;;;;;5088532;28;20609;-70
2021/05/07 01:54:56;;;;;;;15.87;9.50;;;9.70;99.90;;;;;;5085578;28;20291;-70
2021/05/07 01:57:28;;;;;;;13.43;9.30;;;9.70;99.90;;;;;;5083250;28;20297;-68
2021/05/07 01:59:54;;;;;;;14.80;9.80;;;9.70;99.90;;;;;;5078952;28;20205;-68
2021/05/07 02:02:20;;;;;;;14.50;9.60;;;9.80;99.90;;;;;;5080394;28;20712;-68
2021/05/07 02:04:47;;;;;;;14.20;9.97;;;9.80;99.90;;;;;;5087780;28;20648;-68
2021/05/07 02:07:13;;;;;;;11.50;8.63;;;9.80;99.90;;;;;;5080458;28;20293;-69
2021/05/07 02:09:39;;;;;;;13.30;9.43;;;9.90;99.90;;;;;;5085046;28;20301;-69
2021/05/07 02:12:08;;;;;;;14.30;8.27;;;9.80;99.90;;;;;;5080949;28;20250;-68
2021/05/07 02:14:34;;;;;;;10.67;8.43;;;9.90;99.90;;;;;;5070475;28;20343;-68
2021/05/07 02:17:01;;;;;;;13.50;8.77;;;9.90;99.90;;;;;;5093319;28;20291;-68
2021/05/07 02:19:28;;;;;;;13.20;9.37;;;9.80;99.90;;;;;;5084049;28;20234;-71
2021/05/07 02:21:54;;;;;;;11.30;8.77;;;9.70;99.90;;;;;;5087691;28;20691;-69
2021/05/07 02:24:21;;;;;;;12.13;8.70;;;9.60;99.90;;;;;;5080430;28;20300;-69
2021/05/07 02:26:47;;;;;;;13.07;8.63;;;9.50;99.90;;;;;;5086322;28;20638;-69
2021/05/07 02:29:16;;;;;;;12.10;8.53;;;9.40;99.90;;;;;;5082629;28;20323;-69
2021/05/07 02:31:43;;;;;;;13.47;9.10;;;9.30;99.90;;;;;;5086081;28;20205;-68
2021/05/07 02:34:09;;;;;;;13.60;9.47;;;9.10;99.90;;;;;;5077435;28;20674;-71
2021/05/07 02:36:36;;;;;;;12.03;8.83;;;9.10;99.90;;;;;;5078338;28;20244;-69
2021/05/07 02:39:03;;;;;;;13.13;8.80;;;9.00;99.90;;;;;;5084591;28;20208;-68
2021/05/07 02:41:29;;;;;;;13.20;8.63;;;9.00;99.90;;;;;;5082606;28;20299;-68
2021/05/07 02:43:55;;;;;;;13.23;9.30;;;8.90;99.90;;;;;;5081478;28;20296;-69
2021/05/07 02:46:23;;;;;;;13.47;9.03;;;8.90;99.90;;;;;;5082906;28;20276;-69
2021/05/07 02:48:49;;;;;;;11.63;8.67;;;8.90;99.90;;;;;;5077189;28;20328;-69
2021/05/07 02:51:15;;;;;;;12.63;8.63;;;8.90;99.90;;;;;;5078005;28;20298;-69
2021/05/07 02:53:42;;;;;;;10.30;7.50;;;8.90;99.90;;;;;;5079893;28;20255;-69
2021/05/07 02:56:08;;;;;;;12.73;8.83;;;8.90;99.90;;;;;;5070453;28;20634;-69
2021/05/07 02:58:35;;;;;;;13.33;9.27;;;8.90;99.90;;;;;;5084317;28;20232;-70
2021/05/07 03:01:01;;;;;;;14.97;9.13;;;8.90;99.90;;;;;;5087774;28;20211;-69
2021/05/07 03:03:28;;;;;;;11.40;9.27;;;8.90;99.90;;;;;;5095304;28;20208;-69
2021/05/07 03:05:55;;;;;;;12.43;9.07;;;8.80;99.90;;;;;;5085943;28;20224;-69
2021/05/07 03:08:22;;;;;;;14.57;9.67;;;8.80;99.90;;;;;;5085726;28;20225;-69
2021/05/07 03:10:49;;;;;;;14.07;9.10;;;8.80;99.90;;;;;;5096250;28;20205;-70
2021/05/07 03:13:16;;;;;;;13.10;8.60;;;8.80;99.90;;;;;;5093380;28;20350;-69
2021/05/07 03:15:42;;;;;;;13.03;8.90;;;8.70;99.90;;;;;;5086895;28;20538;-69
2021/05/07 03:18:14;;;;;;;13.90;9.13;;;8.70;99.90;;;;;;5084141;28;20212;-69
2021/05/07 03:20:42;;;;;;;13.30;9.27;;;8.60;99.90;;;;;;5088277;28;20212;-70
2021/05/07 03:23:09;;;;;;;13.47;10.13;;;8.50;99.90;;;;;;5085188;28;20213;-70
2021/05/07 03:25:35;;;;;;;14.83;9.77;;;8.50;99.90;;;;;;5085937;28;20673;-70
2021/05/07 03:28:02;;;;;;;15.17;9.57;;;8.40;99.90;;;;;;5084422;28;20571;-69
2021/05/07 03:30:28;;;;;;;15.13;9.27;;;8.40;99.90;;;;;;5089226;28;20236;-69
2021/05/07 03:32:54;;;;;;;13.27;9.27;;;8.30;99.90;;;;;;5077064;28;20714;-69
2021/05/07 03:35:21;;;;;;;13.27;9.27;;;8.30;99.90;;;;;;5090052;28;20256;-69
2021/05/07 03:37:48;;;;;;;13.53;8.40;;;8.30;99.90;;;;;;5093573;28;20201;-69
2021/05/07 03:40:15;;;;;;;11.60;8.67;;;8.30;99.90;;;;;;5089151;28;20205;-69
2021/05/07 03:42:41;;;;;;;15.60;9.77;;;8.30;99.90;;;;;;5089506;28;20295;-69
2021/05/07 03:45:08;;;;;;;14.23;9.40;;;8.30;99.90;;;;;;5080361;28;20368;-69
2021/05/07 03:47:34;;;;;;;11.63;8.63;;;8.30;99.90;;;;;;5081498;28;20205;-69
2021/05/07 03:50:01;;;;;;;10.63;8.30;;;8.30;99.90;;;;;;5089126;28;20291;-68
2021/05/07 03:52:27;;;;;;;11.90;8.73;;;8.40;99.90;;;;;;5096429;28;20257;-69
2021/05/07 03:54:54;;;;;;;14.20;9.03;;;8.40;99.90;;;;;;5085324;28;20296;-69
2021/05/07 03:57:22;;;;;;;16.20;9.03;;;8.40;99.90;;;;;;5086300;28;20284;-68
2021/05/07 03:59:48;;;;;;;13.80;9.23;;;8.40;99.90;;;;;;5091671;28;20215;-70
2021/05/07 04:02:15;;;;;;;12.07;8.80;;;8.30;99.90;;;;;;5092909;28;20296;-69
2021/05/07 04:04:43;;;;;;;10.70;8.20;;;8.30;99.90;;;;;;5088759;28;20229;-69
2021/05/07 04:07:10;;;;;;;12.67;9.47;;;8.30;99.90;;;;;;5094336;28;20213;-69
2021/05/07 04:09:38;;;;;;;14.90;9.17;;;8.20;99.90;;;;;;5087317;28;20647;-69
2021/05/07 04:12:15;;;;;;;11.47;9.27;;;8.20;99.90;;;;;;5091023;28;20200;-69
2021/05/07 04:14:41;;;;;;;11.37;9.37;;;8.20;99.90;;;;;;5079849;28;20278;-68
2021/05/07 04:17:07;;;;;;;15.80;9.43;;;8.20;99.90;;;;;;5092254;28;20622;-69
2021/05/07 04:19:34;;;;;;;14.57;9.83;;;8.20;99.90;;;;;;5091992;28;20288;-68
2021/05/07 04:22:00;;;;;;;12.13;9.50;;;8.20;99.90;;;;;;5080721;28;20323;-69
2021/05/07 04:24:27;;;;;;;13.33;9.93;;;8.30;99.90;;;;;;5071495;28;20209;-69
2021/05/07 04:26:54;;;;;;;13.83;9.07;;;8.30;99.90;;;;;;5088944;28;20261;-69
2021/05/07 04:29:23;;;;;;;13.87;10.43;;;8.30;99.90;;;;;;5087387;28;20291;-69
2021/05/07 04:31:49;;;;;;;14.77;9.60;;;8.40;99.90;;;;;;5088558;28;20725;-68
2021/05/07 04:34:16;;;;;;;13.67;9.60;;;8.40;99.90;;;;;;5083378;28;20243;-69
2021/05/07 04:36:42;;;;;;;12.53;9.27;;;8.50;99.90;;;;;;5094706;28;20215;-69
2021/05/07 04:39:09;;;;;;;13.20;8.77;;;8.50;99.90;;;;;;5079031;28;20627;-69
2021/05/07 04:41:35;;;;;;;13.13;9.17;;;8.60;99.90;;;;;;5083697;28;20204;-70
2021/05/07 04:44:02;;;;;;;12.47;9.17;;;8.60;99.90;;;;;;5090837;28;20587;-68
2021/05/07 04:46:29;;;;;;;11.30;9.57;;;8.60;99.90;;;;;;5082396;28;20319;-69
2021/05/07 04:48:56;;;;;;;11.37;9.80;;;8.60;99.90;;;;;;5090068;28;20292;-69
2021/05/07 04:51:22;;;;;;;11.63;9.40;;;8.60;99.90;;;;;;5087008;28;20212;-70
2021/05/07 04:53:49;;;;;;;14.63;9.30;;;8.60;99.90;;;;;;5085224;28;20216;-70
2021/05/07 04:56:15;;;;;;;13.70;9.53;;;8.60;99.90;;;;;;5086790;28;20315;-69
2021/05/07 04:58:42;;;;;;;13.87;10.20;;;8.60;99.90;;;;;;5087558;28;20261;-69
2021/05/07 05:01:08;;;;;;;13.63;10.10;;;8.60;99.90;;;;;;5083058;28;20239;-68
2021/05/07 05:03:35;;;;;;;13.23;9.60;;;8.70;99.90;;;;;;5088984;28;20209;-70
2021/05/07 05:06:02;;;;;;;12.47;9.67;;;8.70;99.90;;;;;;5083693;28;20241;-68
2021/05/07 05:08:28;;;;;;;11.47;9.50;;;8.70;99.90;;;;;;5085994;28;20200;-69
2021/05/07 05:10:56;;;;;;;13.33;9.20;;;8.70;99.90;;;;;;5081125;28;20680;-69
2021/05/07 05:13:23;;;;;;;13.03;10.93;;;8.70;99.90;;;;;;5082556;28;20248;-69
2021/05/07 05:15:50;;;;;;;13.00;9.17;;;8.70;99.90;;;;;;5077385;28;20205;-69
2021/05/07 05:18:27;;;;;;;11.67;8.87;;;8.70;99.90;;;;;;5088811;28;20240;-70
2021/05/07 05:20:55;;;;;;;10.83;8.50;;;8.80;99.90;;;;;;5082690;28;20718;-71
2021/05/07 05:23:22;;;;;;;10.53;8.53;;;8.80;99.90;;;;;;5082659;28;20259;-71
2021/05/07 05:25:48;;;;;;;14.57;9.37;;;8.80;99.90;;;;;;5074944;28;20249;-71
2021/05/07 05:28:15;;;;;;;11.90;8.67;;;8.80;99.90;;;;;;5084398;28;20565;-72
2021/05/07 05:30:42;;;;;;;10.70;8.60;;;8.80;99.90;;;;;;5088153;28;20650;-72
2021/05/07 05:33:08;;;;;;;11.87;8.53;;;8.90;99.90;;;;;;5080708;28;20236;-72
2021/05/07 05:35:35;;;;;;;11.80;7.43;;;8.90;99.90;;;;;;5089907;28;20212;-71
2021/05/07 05:38:03;;;;;;;12.30;8.33;;;8.80;99.90;;;;;;5092330;28;20261;-71
2021/05/07 05:40:30;;;;;;;13.47;7.93;;;8.80;99.90;;;;;;5083574;28;20208;-70
2021/05/07 05:42:57;;;;;;;12.23;8.23;;;8.80;99.90;;;;;;5085898;28;20220;-71
2021/05/07 05:45:24;;;;;;;9.70;7.53;;;8.90;99.90;;;;;;5074201;28;20225;-71
2021/05/07 05:48:01;;;;;;;10.90;7.50;;;8.90;99.90;;;;;;5085294;28;20229;-71
2021/05/07 05:50:28;;;;;;;10.27;7.63;;;8.90;99.90;;;;;;5085231;28;20250;-70
2021/05/07 05:52:54;;;;;;;11.07;6.97;;;8.90;99.90;;;;;;5076180;28;20584;-73
2021/05/07 05:55:22;;;;;;;7.07;5.17;;;9.00;99.90;;;;;;5085485;28;20703;-70
2021/05/07 05:57:49;;;;;;;6.23;4.63;;;9.00;99.90;;;;;;5085370;28;20209;-71
2021/05/07 06:00:16;;;;;;;7.60;5.13;;;8.90;99.90;;;;;;5079940;28;20233;-70
2021/05/07 06:02:43;;;;;;;5.30;4.00;;;8.90;99.90;;;;;;5082651;28;20232;-70
2021/05/07 06:05:12;;;;;;;6.73;4.70;;;8.90;99.90;;;;;;5082072;28;20230;-71
2021/05/07 06:07:39;;;;;;;5.97;4.60;;;8.90;99.90;;;;;;5084826;28;20267;-72
2021/05/07 06:10:08;;;;;;;5.97;4.80;;;8.90;99.90;;;;;;5078478;28;20236;-71
2021/05/07 06:12:35;;;;;;;5.90;4.63;;;9.00;99.90;;;;;;5081995;28;20208;-71
2021/05/07 06:15:02;;;;;;;5.93;4.90;;;9.00;99.90;;;;;;5078506;28;20224;-70
2021/05/07 06:17:28;;;;;;;10.17;5.80;;;9.10;99.90;;;;;;5078319;28;20270;-74
2021/05/07 06:19:57;;;;;;;7.40;5.00;;;9.10;99.90;;;;;;5085169;28;20196;-71
2021/05/07 06:22:23;;;;;;;6.37;4.93;;;9.20;99.90;;;;;;5084469;28;20213;-72
2021/05/07 06:24:49;;;;;;;8.20;5.47;;;9.20;99.90;;;;;;5075799;28;20236;-72
2021/05/07 06:27:16;;;;;;;4.90;4.10;;;9.20;99.90;;;;;;5083455;28;20207;-73
2021/05/07 06:29:43;;;;;;;5.80;4.30;;;9.30;99.90;;;;;;5090515;28;20247;-73
2021/05/07 06:32:10;;;;;;;6.33;3.80;;;9.30;99.90;;;;;;5081197;28;20207;-72
2021/05/07 06:34:36;;;;;;;5.30;3.90;;;9.30;99.90;;;;;;5076568;28;20248;-74
2021/05/07 06:37:03;;;;;;;5.00;3.57;;;9.40;99.90;;;;;;5087390;28;20255;-74
2021/05/07 06:39:30;;;;;;;4.00;3.20;;;9.30;99.90;;;;;;5082020;28;20291;-72
2021/05/07 06:41:57;;;;;;;5.83;3.43;;;9.40;99.90;;;;;;5086278;28;20205;-72
2021/05/07 06:44:24;;;;;;;3.20;2.53;;;9.40;99.90;;;;;;5080435;28;20288;-70
2021/05/07 06:46:51;;;;;;;4.00;2.90;;;9.50;99.90;;;;;;5071882;28;20256;-71
2021/05/07 06:49:18;;;;;;;5.03;2.50;;;9.50;99.90;;;;;;5078947;28;20230;-71
2021/05/07 06:51:44;;;;;;;3.40;2.67;;;9.50;99.90;;;;;;5087961;28;20809;-72
2021/05/07 06:54:10;;;;;;;2.73;2.50;;;9.60;99.90;;;;;;5082457;28;20653;-71
2021/05/07 06:56:37;;;;;;;4.03;2.60;;;9.50;99.90;;;;;;5079192;28;20265;-70
2021/05/07 06:59:06;;;;;;;5.03;2.77;;;9.60;99.90;;;;;;5079114;28;20346;-71
2021/05/07 07:01:32;;;;;;;3.87;2.53;;;9.60;99.90;;;;;;5071016;28;20209;-71
2021/05/07 07:04:00;;;;;;;3.77;2.80;;;9.60;99.90;;;;;;5074385;28;20205;-70
2021/05/07 07:06:26;;;;;;;4.90;2.93;;;9.60;99.90;;;;;;5077204;28;20224;-71
2021/05/07 07:08:52;;;;;;;4.50;2.83;;;9.70;99.90;;;;;;5078373;28;20243;-71
2021/05/07 07:11:19;;;;;;;3.20;2.90;;;9.80;99.90;;;;;;5074003;28;20205;-70
2021/05/07 07:13:45;;;;;;;3.33;3.00;;;9.90;99.90;;;;;;5066546;28;20226;-71
2021/05/07 07:16:12;;;;;;;5.50;3.07;;;9.90;99.90;;;;;;5074583;28;20253;-70
2021/05/07 07:18:39;;;;;;;3.80;3.40;;;9.90;99.90;;;;;;5072961;28;20205;-71
2021/05/07 07:21:08;;;;;;;4.23;3.30;;;9.90;99.90;;;;;;5073597;28;20216;-70
2021/05/07 07:23:34;;;;;;;4.47;3.37;;;9.90;99.90;;;;;;5068363;28;20214;-72
2021/05/07 07:26:01;;;;;;;6.80;4.10;;;9.80;99.90;;;;;;5067321;28;20247;-71
2021/05/07 07:28:28;;;;;;;5.40;4.83;;;9.80;99.90;;;;;;5079829;28;20205;-71
2021/05/07 07:30:54;;;;;;;8.77;6.57;;;9.80;99.90;;;;;;5084060;28;20304;-70
2021/05/07 07:33:22;;;;;;;9.70;8.13;;;9.70;99.90;;;;;;5083881;28;20229;-73
2021/05/07 07:35:49;;;;;;;10.57;8.20;;;9.70;99.90;;;;;;5082970;28;20273;-74
2021/05/07 07:38:16;;;;;;;9.63;7.77;;;9.70;99.90;;;;;;5072810;28;20250;-73
2021/05/07 07:40:42;;;;;;;10.80;8.73;;;9.70;99.90;;;;;;5063457;28;20240;-72
2021/05/07 07:43:09;;;;;;;10.63;7.90;;;9.60;99.90;;;;;;5077262;28;20233;-71
2021/05/07 07:45:35;;;;;;;9.13;6.27;;;9.50;99.90;;;;;;5078672;28;20240;-72
2021/05/07 07:48:02;;;;;;;10.93;6.43;;;9.50;99.90;;;;;;5077493;28;20292;-72
2021/05/07 07:50:28;;;;;;;7.33;5.87;;;9.40;99.90;;;;;;5078452;28;20201;-72
2021/05/07 07:52:55;;;;;;;7.43;5.70;;;9.30;99.90;;;;;;5079050;28;20208;-71
2021/05/07 07:55:22;;;;;;;7.07;5.53;;;9.20;99.90;;;;;;5079428;28;20326;-72
2021/05/07 07:57:49;;;;;;;8.40;6.20;;;9.20;99.90;;;;;;5090685;28;20241;-71
2021/05/07 08:00:16;;;;;;;5.33;4.83;;;9.10;99.90;;;;;;5079234;28;20208;-72
2021/05/07 08:02:45;;;;;;;6.43;5.03;;;9.00;99.90;;;;;;5078861;28;20237;-72
2021/05/07 08:05:12;;;;;;;6.60;5.00;;;9.00;99.90;;;;;;5077140;28;20709;-72
2021/05/07 08:07:39;;;;;;;6.77;4.93;;;8.90;99.90;;;;;;5074747;28;20205;-73
2021/05/07 08:10:07;;;;;;;7.27;5.50;;;8.90;99.90;;;;;;5078126;28;20227;-71
2021/05/07 08:12:34;;;;;;;9.40;5.33;;;8.90;99.90;;;;;;5075969;28;20406;-73
2021/05/07 08:15:01;;;;;;;6.87;4.93;;;8.90;99.90;;;;;;5084400;28;20692;-71
2021/05/07 08:17:27;;;;;;;6.17;4.70;;;8.90;99.90;;;;;;5071123;28;20232;-71
2021/05/07 08:19:54;;;;;;;5.57;4.20;;;8.90;99.90;;;;;;5076559;28;20292;-71
2021/05/07 08:22:20;;;;;;;5.13;4.00;;;8.90;99.90;;;;;;5078969;28;20252;-71
2021/05/07 08:24:47;;;;;;;4.50;4.07;;;8.90;99.90;;;;;;5077921;28;20237;-70
2021/05/07 08:27:13;;;;;;;5.50;4.63;;;8.90;99.90;;;;;;5077727;28;20284;-70
2021/05/07 08:29:41;;;;;;;4.87;4.37;;;8.90;99.90;;;;;;5073951;28;20219;-71
2021/05/07 08:32:07;;;;;;;4.97;4.27;;;8.90;99.90;;;;;;5078277;28;20298;-70
2021/05/07 08:34:34;;;;;;;4.37;3.57;;;9.00;99.90;;;;;;5087130;28;20300;-72
2021/05/07 08:37:00;;;;;;;3.60;3.30;;;9.00;99.90;;;;;;5081914;28;20672;-71
2021/05/07 08:39:28;;;;;;;3.93;3.50;;;9.00;99.90;;;;;;5080983;28;20697;-73
2021/05/07 08:41:55;;;;;;;5.57;3.87;;;9.20;99.90;;;;;;5087282;28;20292;-73
2021/05/07 08:44:21;;;;;;;4.63;3.10;;;9.20;99.90;;;;;;5086292;28;20240;-74
2021/05/07 08:46:48;;;;;;;4.87;3.43;;;9.20;99.90;;;;;;5078991;28;20316;-74
2021/05/07 08:49:18;;;;;;;4.13;3.30;;;9.30;99.90;;;;;;5086500;28;20228;-75
2021/05/07 08:51:44;;;;;;;5.67;3.20;;;9.30;99.90;;;;;;5072578;28;20206;-74
2021/05/07 08:54:12;;;;;;;3.97;3.30;;;9.30;99.90;;;;;;5083723;28;20204;-73
2021/05/07 08:56:39;;;;;;;5.27;3.20;;;9.30;99.90;;;;;;5078501;28;20240;-75
2021/05/07 08:59:06;;;;;;;3.93;3.00;;;9.40;99.90;;;;;;5076957;28;20263;-73
2021/05/07 09:01:43;;;;;;;3.43;3.13;;;9.30;99.90;;;;;;5079849;28;20296;-73
2021/05/07 09:04:13;;;;;;;3.60;3.30;;;9.40;99.90;;;;;;5077749;28;20666;-73
2021/05/07 09:06:40;;;;;;;3.50;3.20;;;9.40;99.90;;;;;;5076367;28;20279;-73
2021/05/07 09:09:16;;;;;;;4.10;3.70;;;9.50;99.90;;;;;;5075334;28;20226;-73
2021/05/07 09:11:44;;;;;;;5.13;3.80;;;9.50;99.90;;;;;;5076302;28;20715;-73
2021/05/07 09:14:10;;;;;;;5.27;4.03;;;9.50;99.90;;;;;;5072896;28;20236;-73
2021/05/07 09:16:39;;;;;;;4.47;4.03;;;9.60;99.90;;;;;;5076787;28;20205;-73
2021/05/07 09:19:19;;;;;;;5.70;4.50;;;9.60;99.90;;;;;;5076501;28;20544;-73
2021/05/07 09:21:45;;;;;;;4.13;3.50;;;9.50;99.90;;;;;;5077296;28;20228;-74
2021/05/07 09:24:13;;;;;;;3.90;3.60;;;9.70;99.90;;;;;;5077431;28;20229;-73
2021/05/07 09:26:50;;;;;;;4.57;3.93;;;9.60;99.90;;;;;;5076029;28;20300;-73
2021/05/07 09:29:20;;;;;;;4.43;3.80;;;9.50;99.90;;;;;;5076516;28;20701;-75
2021/05/07 09:31:50;;;;;;;4.57;3.33;;;9.50;99.90;;;;;;5076249;28;20246;-73
2021/05/07 09:34:17;;;;;;;3.90;2.90;;;9.50;99.90;;;;;;5075517;28;20236;-73
2021/05/07 09:36:45;;;;;;;3.07;2.60;;;9.50;99.90;;;;;;5075349;28;20210;-72
2021/05/07 09:39:13;;;;;;;2.43;1.97;;;9.60;99.90;;;;;;5076490;28;20742;-73
2021/05/07 09:41:41;;;;;;;4.03;2.30;;;9.70;99.90;;;;;;5076569;28;20679;-73
2021/05/07 09:44:20;;;;;;;4.40;2.10;;;9.80;99.90;;;;;;5078235;28;20217;-73
2021/05/07 09:46:46;;;;;;;2.50;2.30;;;9.80;99.90;;;;;;5076871;28;20635;-74
2021/05/07 09:49:26;;;;;;;2.70;2.33;;;9.90;99.90;;;;;;5076035;28;20202;-74
2021/05/07 09:51:54;;;;;;;2.00;1.90;;;9.90;99.90;;;;;;5075759;28;20213;-73
2021/05/07 09:54:21;;;;;;;2.10;1.90;;;10.10;99.90;;;;;;5074783;28;20215;-73
2021/05/07 09:56:47;;;;;;;2.40;2.03;;;10.20;99.90;;;;;;5080741;28;20213;-74
2021/05/07 09:59:15;;;;;;;2.87;2.23;;;10.20;99.90;;;;;;5077472;28;20335;-74
2021/05/07 10:01:44;;;;;;;3.50;1.90;;;10.20;99.90;;;;;;5077692;28;20351;-75
2021/05/07 10:04:11;;;;;;;2.43;2.00;;;10.20;99.90;;;;;;5078925;28;20243;-74
2021/05/07 10:06:38;;;;;;;2.60;2.20;;;10.20;99.90;;;;;;5077132;28;20225;-74
2021/05/07 10:09:06;;;;;;;2.10;2.00;;;10.10;99.90;;;;;;5073974;28;20205;-74
2021/05/07 10:11:39;;;;;;;2.60;2.07;;;10.10;99.90;;;;;;5080918;28;20269;-74
2021/05/07 10:14:09;;;;;;;3.43;2.07;;;10.00;99.90;;;;;;5076340;28;20658;-73
2021/05/07 10:16:36;;;;;;;2.17;1.60;;;9.90;99.90;;;;;;5080676;28;20272;-74
2021/05/07 10:19:04;;;;;;;2.73;2.20;;;9.90;99.90;;;;;;5081221;28;20244;-74
2021/05/07 10:21:37;;;;;;;2.20;2.00;;;9.90;99.90;;;;;;5084267;28;20215;-72
2021/05/07 10:24:05;;;;;;;2.47;2.13;;;9.90;99.90;;;;;;5084133;28;20209;-72
2021/05/07 10:26:37;;;;;;;2.57;2.17;;;9.90;99.90;;;;;;5083508;28;20271;-71
2021/05/07 10:29:15;;;;;;;3.10;2.70;;;9.90;99.90;;;;;;5074102;28;20209;-72
2021/05/07 10:31:46;;;;;;;2.97;2.67;;;10.00;99.90;;;;;;5075100;28;20206;-72
2021/05/07 10:34:12;;;;;;;2.83;2.33;;;10.00;99.90;;;;;;5072658;28;20736;-71
2021/05/07 10:36:40;;;;;;;2.27;2.07;;;10.10;99.90;;;;;;5067589;28;20629;-70
2021/05/07 10:39:17;;;;;;;2.37;2.17;;;10.10;99.90;;;;;;5070360;28;20292;-70
2021/05/07 10:41:44;;;;;;;2.43;2.10;;;10.10;99.90;;;;;;5075044;28;20228;-72
2021/05/07 10:44:13;;;;;;;2.50;2.30;;;10.20;99.90;;;;;;5074661;28;20661;-69
2021/05/07 10:46:39;;;;;;;2.77;2.10;;;10.10;99.90;;;;;;5072323;28;20693;-71
2021/05/07 10:49:06;;;;;;;2.30;2.10;;;10.00;99.90;;;;;;5069011;28;20212;-73
2021/05/07 10:51:33;;;;;;;3.40;2.10;;;10.00;99.90;;;;;;5090881;28;20300;-72
2021/05/07 10:54:07;;;;;;;2.37;2.17;;;10.00;99.90;;;;;;5080999;28;20265;-75
2021/05/07 10:56:36;;;;;;;2.80;2.57;;;10.10;99.90;;;;;;5085477;28;20272;-73
2021/05/07 10:59:14;;;;;;;2.53;2.10;;;10.20;99.90;;;;;;5076773;28;20559;-72
2021/05/07 11:01:41;;;;;;;2.70;2.50;;;10.50;99.90;;;;;;5065275;28;20240;-72
2021/05/07 11:04:09;;;;;;;2.60;1.97;;;10.80;99.90;;;;;;5075165;28;20331;-71
2021/05/07 11:06:38;;;;;;;2.13;1.70;;;11.10;99.90;;;;;;5074777;28;20319;-72
2021/05/07 11:09:16;;;;;;;1.97;1.77;;;11.30;99.90;;;;;;5074300;28;20206;-73
2021/05/07 11:11:44;;;;;;;2.07;1.93;;;11.40;99.90;;;;;;5073149;28;20240;-73
2021/05/07 11:14:13;;;;;;;2.30;2.10;;;11.50;99.90;;;;;;5079206;28;20225;-72
2021/05/07 11:16:41;;;;;;;2.27;2.07;;;11.50;99.90;;;;;;5072757;28;20201;-72
2021/05/07 11:19:08;;;;;;;2.90;2.33;;;11.50;99.90;;;;;;5077751;28;20215;-71
2021/05/07 11:21:34;;;;;;;2.33;2.13;;;11.40;99.90;;;;;;5079352;28;20299;-73
2021/05/07 11:24:12;;;;;;;3.93;2.20;;;11.40;99.90;;;;;;5077977;28;20658;-73
2021/05/07 11:26:39;;;;;;;2.13;1.93;;;11.40;99.90;;;;;;5078174;28;20305;-73
2021/05/07 11:29:06;;;;;;;2.90;2.03;;;11.40;99.90;;;;;;5077483;28;20350;-73
2021/05/07 11:31:33;;;;;;;2.53;2.03;;;11.40;99.90;;;;;;5076655;28;20576;-73
2021/05/07 11:33:59;;;;;;;2.67;1.60;;;11.40;99.90;;;;;;5077810;28;20260;-71
2021/05/07 11:36:26;;;;;;;2.63;1.60;;;11.30;99.90;;;;;;5077472;28;20209;-71
2021/05/07 11:38:52;;;;;;;1.50;1.40;;;11.20;99.90;;;;;;5076499;28;20323;-70
2021/05/07 11:41:20;;;;;;;2.23;1.70;;;11.10;99.90;;;;;;5077111;28;20288;-72
2021/05/07 11:43:48;;;;;;;1.57;1.43;;;11.20;99.90;;;;;;5077011;28;20764;-73
2021/05/07 11:46:17;;;;;;;2.53;1.80;;;11.30;99.90;;;;;;5072699;28;20230;-73
2021/05/07 11:48:46;;;;;;;1.67;1.57;;;11.40;99.90;;;;;;5077905;28;20529;-71
2021/05/07 11:51:12;;;;;;;1.87;1.67;;;11.80;99.90;;;;;;5076738;28;20304;-72
2021/05/07 11:53:39;;;;;;;2.90;1.70;;;12.50;99.90;;;;;;5076560;28;20246;-72
2021/05/07 11:56:07;;;;;;;2.47;2.07;;;13.00;99.90;;;;;;5068786;28;20302;-74
2021/05/07 11:58:35;;;;;;;1.67;1.57;;;13.40;99.90;;;;;;5071124;28;20218;-74
2021/05/07 12:01:04;;;;;;;1.40;1.30;;;13.40;99.90;;;;;;5077092;28;20755;-73
2021/05/07 12:03:41;;;;;;;1.53;1.43;;;13.60;99.90;;;;;;5078201;28;20610;-72
2021/05/07 12:06:18;;;;;;;1.40;1.30;;;13.60;99.90;;;;;;5077924;28;20225;-72
2021/05/07 12:08:45;;;;;;;3.23;1.77;;;13.50;99.90;;;;;;5071646;28;20207;-72
2021/05/07 12:11:13;;;;;;;1.67;1.57;;;13.20;99.90;;;;;;5073519;28;20292;-72
2021/05/07 12:13:40;;;;;;;2.23;1.43;;;13.10;99.90;;;;;;5079133;28;20229;-72
2021/05/07 12:16:07;;;;;;;1.47;1.37;;;12.90;99.90;;;;;;5077552;28;20233;-74
2021/05/07 12:18:35;;;;;;;2.03;1.40;;;12.70;99.90;;;;;;5076974;28;20209;-73
2021/05/07 12:21:03;;;;;;;2.20;1.57;;;12.60;99.90;;;;;;5077425;28;20201;-70
2021/05/07 12:23:43;;;;;;;1.60;1.50;;;12.50;99.90;;;;;;5076641;28;20317;-72
2021/05/07 12:26:10;;;;;;;1.50;1.40;;;12.40;99.90;;;;;;5076053;28;20291;-73
2021/05/07 12:28:38;;;;;;;1.67;1.53;;;12.40;99.90;;;;;;5063060;28;20224;-72
2021/05/07 12:31:06;;;;;;;2.20;1.33;;;12.30;99.90;;;;;;5072279;28;20658;-72
2021/05/07 12:33:35;;;;;;;2.03;1.40;;;12.20;99.90;;;;;;5066548;28;20332;-72
2021/05/07 12:36:04;;;;;;;1.97;1.47;;;12.20;99.90;;;;;;5078364;28;20201;-72
2021/05/07 12:38:34;;;;;;;1.83;1.73;;;12.10;99.90;;;;;;5079941;28;20288;-73
2021/05/07 12:41:03;;;;;;;2.20;1.90;;;12.00;99.90;;;;;;5079303;28;20197;-71
2021/05/07 12:43:33;;;;;;;1.63;1.53;;;11.90;99.90;;;;;;5077560;28;20206;-72
2021/05/07 12:46:00;;;;;;;3.97;1.70;;;12.00;99.90;;;;;;5071101;28;20321;-73
2021/05/07 12:48:27;;;;;;;4.83;1.83;;;12.00;99.90;;;;;;5066904;28;20210;-72
2021/05/07 12:50:54;;;;;;;1.67;1.50;;;12.10;99.90;;;;;;5075798;28;20292;-72
2021/05/07 12:53:23;;;;;;;2.20;2.00;;;12.10;99.90;;;;;;5076815;28;20292;-74